createdAt,value
2019-02-11T00:00:35.715Z,63.89
2019-02-11T00:01:43.501Z,64.13
2019-02-11T00:02:51.435Z,64.32
2019-02-11T00:03:59.981Z,64.28
2019-02-11T00:05:08.149Z,64.44
2019-02-11T00:06:16.175Z,64.42
2019-02-11T00:07:23.868Z,64.55
2019-02-11T00:08:31.694Z,64.61
2019-02-11T00:09:40.077Z,64.71
2019-02-11T00:10:47.684Z,64.78
2019-02-11T00:11:55.543Z,65.01
2019-02-11T00:13:10.478Z,65.20
2019-02-11T00:14:13.606Z,65.38
2019-02-11T00:15:21.495Z,65.18
2019-02-11T00:16:29.309Z,65.06
2019-02-11T00:17:38.075Z,65.20
2019-02-11T00:18:46.297Z,65.06
2019-02-11T00:19:54.407Z,65.17
2019-02-11T00:21:01.558Z,65.00
2019-02-11T00:22:08.318Z,65.34
2019-02-11T00:23:16.186Z,65.24
2019-02-11T00:24:23.978Z,64.79
2019-02-11T00:25:30.972Z,64.60
2019-02-11T00:26:37.150Z,64.70
2019-02-11T00:28:21.560Z,64.83
2019-02-11T00:29:31.145Z,64.68
2019-02-11T00:30:39.013Z,64.58
2019-02-11T00:31:47.111Z,64.68
2019-02-11T00:32:55.570Z,64.47
2019-02-11T00:34:03.331Z,64.70
2019-02-11T00:35:11.103Z,64.35
2019-02-11T00:36:19.289Z,64.34
2019-02-11T00:37:26.947Z,64.34
2019-02-11T00:38:34.554Z,64.14
2019-02-11T00:39:42.770Z,64.07
2019-02-11T00:40:50.648Z,64.27
2019-02-11T00:41:58.340Z,64.52
2019-02-11T00:43:06.010Z,64.25
2019-02-11T00:44:13.914Z,64.35
2019-02-11T00:45:21.805Z,64.25
2019-02-11T00:46:29.668Z,64.12
2019-02-11T00:47:37.461Z,64.36
2019-02-11T00:48:45.461Z,64.13
2019-02-11T00:49:53.243Z,64.02
2019-02-11T00:51:01.305Z,63.96
2019-02-11T00:52:09.231Z,63.87
2019-02-11T00:53:16.899Z,63.82
2019-02-11T00:54:24.615Z,64.17
2019-02-11T00:55:32.479Z,64.24
2019-02-11T00:56:40.282Z,64.19
2019-02-11T00:57:48.211Z,64.22
2019-02-11T00:58:55.982Z,64.24
2019-02-11T01:00:03.621Z,64.29
2019-02-11T01:01:11.555Z,64.18
2019-02-11T01:02:19.804Z,64.22
2019-02-11T01:03:27.431Z,64.21
2019-02-11T01:04:35.108Z,64.48
2019-02-11T01:05:42.973Z,64.54
2019-02-11T01:06:50.532Z,64.68
2019-02-11T01:07:58.435Z,64.67
2019-02-11T01:09:06.913Z,64.85
2019-02-11T01:10:14.732Z,65.05
2019-02-11T01:11:23.297Z,65.41
2019-02-11T01:12:30.827Z,65.53
2019-02-11T01:13:38.818Z,65.84
2019-02-11T01:14:46.844Z,65.90
2019-02-11T01:15:54.651Z,66.33
2019-02-11T01:17:02.588Z,66.25
2019-02-11T01:18:10.686Z,66.57
2019-02-11T01:19:18.388Z,67.02
2019-02-11T01:20:26.028Z,66.99
2019-02-11T01:21:34.095Z,67.21
2019-02-11T01:22:43.281Z,67.29
2019-02-11T01:23:51.387Z,67.66
2019-02-11T01:24:59.172Z,67.92
2019-02-11T01:27:11.060Z,68.26
2019-02-11T01:28:19.771Z,68.52
2019-02-11T01:29:27.463Z,68.75
2019-02-11T01:30:35.370Z,68.64
2019-02-11T01:31:43.146Z,69.09
2019-02-11T01:32:50.984Z,69.08
2019-02-11T01:33:58.538Z,69.16
2019-02-11T01:35:08.301Z,69.31
2019-02-11T01:36:16.107Z,69.37
2019-02-11T01:37:23.937Z,69.83
2019-02-11T01:38:31.698Z,70.16
2019-02-11T01:39:39.544Z,70.21
2019-02-11T01:40:47.713Z,70.48
2019-02-11T01:41:55.599Z,70.80
2019-02-11T01:43:03.403Z,71.01
2019-02-11T01:44:11.257Z,71.25
2019-02-11T01:45:19.279Z,71.40
2019-02-11T01:46:27.174Z,71.37
2019-02-11T01:47:35.026Z,71.45
2019-02-11T01:48:42.751Z,71.58
2019-02-11T01:49:50.541Z,71.58
2019-02-11T01:50:58.332Z,71.66
2019-02-11T01:52:06.016Z,71.49
2019-02-11T01:53:13.907Z,71.70
2019-02-11T01:54:21.784Z,71.88
2019-02-11T01:55:29.622Z,72.12
2019-02-11T01:56:38.314Z,72.02
2019-02-11T01:57:45.847Z,72.23
2019-02-11T01:58:53.738Z,72.55
2019-02-11T02:00:01.512Z,72.60
2019-02-11T02:01:09.479Z,72.67
2019-02-11T02:02:17.369Z,73.02
2019-02-11T02:03:25.422Z,73.16
2019-02-11T02:04:33.303Z,73.33
2019-02-11T02:05:40.942Z,73.50
2019-02-11T02:06:48.913Z,73.59
2019-02-11T02:07:56.697Z,73.76
2019-02-11T02:09:05.190Z,73.80
2019-02-11T02:10:15.136Z,73.98
2019-02-11T02:11:23.090Z,73.93
2019-02-11T02:12:30.681Z,73.96
2019-02-11T02:13:44.607Z,73.88
2019-02-11T02:14:48.569Z,73.93
2019-02-11T02:15:56.483Z,74.03
2019-02-11T02:17:04.112Z,74.06
2019-02-11T02:18:12.417Z,74.06
2019-02-11T02:19:19.903Z,74.01
2019-02-11T02:20:28.115Z,74.03
2019-02-11T02:21:36.102Z,74.01
2019-02-11T02:22:44.064Z,73.96
2019-02-11T02:23:52.138Z,73.96
2019-02-11T02:25:00.314Z,73.94
2019-02-11T02:26:07.807Z,73.82
2019-02-11T02:27:15.454Z,73.70
2019-02-11T02:28:23.524Z,73.64
2019-02-11T02:29:31.223Z,73.55
2019-02-11T02:30:39.057Z,73.48
2019-02-11T02:31:46.891Z,73.52
2019-02-11T02:32:54.835Z,73.55
2019-02-11T02:34:02.530Z,73.61
2019-02-11T02:35:10.318Z,73.72
2019-02-11T02:36:18.088Z,73.78
2019-02-11T02:37:32.856Z,73.84
2019-02-11T02:38:40.908Z,73.78
2019-02-11T02:39:48.619Z,73.78
2019-02-11T02:40:56.379Z,73.75
2019-02-11T02:42:03.898Z,73.78
2019-02-11T02:43:11.688Z,73.81
2019-02-11T02:44:19.754Z,73.73
2019-02-11T02:45:29.132Z,73.77
2019-02-11T02:46:36.985Z,73.76
2019-02-11T02:47:44.721Z,73.81
2019-02-11T02:48:52.610Z,73.77
2019-02-11T02:50:00.688Z,73.78
2019-02-11T02:51:08.800Z,73.76
2019-02-11T02:52:16.789Z,73.86
2019-02-11T02:53:24.598Z,73.85
2019-02-11T02:54:32.287Z,73.92
2019-02-11T02:55:40.602Z,74.10
2019-02-11T02:56:48.451Z,74.19
2019-02-11T02:57:56.460Z,74.21
2019-02-11T02:59:04.242Z,74.25
2019-02-11T03:00:13.776Z,74.26
2019-02-11T03:01:21.156Z,74.39
2019-02-11T03:02:28.742Z,74.56
2019-02-11T03:03:36.548Z,74.58
2019-02-11T03:04:44.437Z,74.52
2019-02-11T03:05:53.089Z,74.60
2019-02-11T03:07:00.941Z,74.57
2019-02-11T03:08:09.164Z,74.64
2019-02-11T03:09:16.617Z,74.59
2019-02-11T03:10:24.252Z,74.60
2019-02-11T03:11:32.475Z,74.61
2019-02-11T03:12:40.421Z,74.68
2019-02-11T03:13:48.821Z,74.80
2019-02-11T03:14:57.250Z,74.81
2019-02-11T03:16:05.445Z,74.83
2019-02-11T03:17:13.492Z,74.75
2019-02-11T03:18:21.269Z,74.79
2019-02-11T03:19:28.863Z,74.71
2019-02-11T03:20:36.838Z,74.66
2019-02-11T03:21:44.297Z,74.63
2019-02-11T03:22:52.465Z,74.52
2019-02-11T03:24:00.517Z,74.38
2019-02-11T03:25:09.274Z,74.24
2019-02-11T03:26:17.039Z,74.15
2019-02-11T03:27:24.827Z,74.10
2019-02-11T03:28:32.521Z,74.03
2019-02-11T03:29:40.608Z,74.03
2019-02-11T03:30:48.413Z,74.00
2019-02-11T03:31:59.752Z,74.00
2019-02-11T03:33:05.860Z,73.97
2019-02-11T03:34:13.726Z,73.95
2019-02-11T03:35:21.599Z,73.93
2019-02-11T03:36:29.409Z,73.96
2019-02-11T03:37:37.713Z,73.99
2019-02-11T03:38:45.449Z,73.97
2019-02-11T03:39:53.399Z,74.00
2019-02-11T03:41:01.186Z,73.98
2019-02-11T03:42:09.094Z,74.01
2019-02-11T03:43:16.686Z,74.00
2019-02-11T03:44:24.749Z,73.98
2019-02-11T03:45:32.414Z,74.12
2019-02-11T03:46:40.398Z,74.17
2019-02-11T03:47:47.868Z,74.19
2019-02-11T03:48:55.563Z,74.17
2019-02-11T03:50:04.042Z,74.28
2019-02-11T03:51:14.510Z,74.25
2019-02-11T03:52:22.218Z,74.27
2019-02-11T03:53:29.974Z,74.22
2019-02-11T03:54:37.847Z,74.11
2019-02-11T03:55:46.091Z,74.04
2019-02-11T03:56:53.627Z,74.00
2019-02-11T03:58:02.018Z,73.99
2019-02-11T03:59:09.491Z,73.93
2019-02-11T04:00:17.497Z,73.88
2019-02-11T04:01:25.537Z,73.86
2019-02-11T04:02:33.289Z,73.83
2019-02-11T04:03:41.039Z,73.75
2019-02-11T04:04:48.729Z,73.72
2019-02-11T04:05:56.376Z,73.66
2019-02-11T04:07:04.646Z,73.61
2019-02-11T04:08:12.366Z,73.55
2019-02-11T04:09:19.768Z,73.46
2019-02-11T04:10:27.442Z,73.30
2019-02-11T04:11:35.587Z,73.18
2019-02-11T04:12:43.293Z,73.11
2019-02-11T04:13:50.867Z,73.05
2019-02-11T04:14:58.903Z,72.95
2019-02-11T04:16:06.768Z,72.71
2019-02-11T04:17:14.537Z,72.71
2019-02-11T04:18:22.123Z,72.62
2019-02-11T04:19:30.027Z,72.60
2019-02-11T04:20:37.653Z,72.49
2019-02-11T04:21:45.351Z,72.44
2019-02-11T04:22:53.088Z,72.37
2019-02-11T04:24:00.805Z,72.28
2019-02-11T04:25:08.990Z,72.21
2019-02-11T04:26:16.734Z,72.10
2019-02-11T04:27:24.854Z,71.93
2019-02-11T04:28:32.572Z,71.85
2019-02-11T04:29:40.378Z,71.67
2019-02-11T04:30:48.113Z,71.54
2019-02-11T04:31:55.948Z,71.48
2019-02-11T04:33:04.083Z,71.39
2019-02-11T04:34:12.107Z,71.28
2019-02-11T04:35:20.135Z,71.18
2019-02-11T04:36:28.283Z,71.17
2019-02-11T04:37:36.527Z,71.05
2019-02-11T04:38:44.633Z,71.01
2019-02-11T04:39:52.500Z,70.96
2019-02-11T04:41:00.113Z,70.79
2019-02-11T04:42:08.232Z,70.82
2019-02-11T04:43:16.261Z,70.67
2019-02-11T04:44:23.884Z,70.68
2019-02-11T04:45:31.851Z,70.64
2019-02-11T04:46:39.933Z,70.62
2019-02-11T04:47:47.605Z,70.58
2019-02-11T04:48:55.925Z,70.58
2019-02-11T04:50:05.464Z,70.49
2019-02-11T04:51:13.013Z,70.41
2019-02-11T04:52:21.337Z,70.24
2019-02-11T04:53:29.240Z,70.14
2019-02-11T04:54:37.305Z,70.02
2019-02-11T04:55:45.345Z,69.98
2019-02-11T04:56:53.210Z,69.95
2019-02-11T04:58:01.461Z,69.93
2019-02-11T04:59:09.266Z,69.81
2019-02-11T05:00:17.569Z,69.76
2019-02-11T05:01:25.380Z,69.65
2019-02-11T05:02:32.983Z,69.40
2019-02-11T05:03:40.849Z,69.38
2019-02-11T05:04:48.743Z,69.38
2019-02-11T05:05:56.589Z,69.35
2019-02-11T05:07:04.703Z,69.28
2019-02-11T05:08:12.481Z,69.25
2019-02-11T05:09:20.552Z,69.08
2019-02-11T05:10:28.201Z,69.07
2019-02-11T05:11:36.211Z,68.95
2019-02-11T05:12:44.123Z,68.91
2019-02-11T05:13:51.982Z,68.89
2019-02-11T05:14:59.557Z,68.70
2019-02-11T05:16:07.435Z,68.70
2019-02-11T05:17:15.464Z,68.65
2019-02-11T05:18:23.106Z,68.71
2019-02-11T05:19:31.249Z,68.67
2019-02-11T05:20:39.193Z,68.62
2019-02-11T05:21:46.997Z,68.61
2019-02-11T05:22:54.826Z,68.57
2019-02-11T05:24:02.586Z,68.44
2019-02-11T05:25:10.697Z,68.38
2019-02-11T05:26:18.844Z,68.33
2019-02-11T05:27:26.540Z,68.25
2019-02-11T05:28:34.617Z,68.23
2019-02-11T05:29:42.203Z,68.18
2019-02-11T05:30:49.888Z,68.13
2019-02-11T05:31:57.518Z,68.09
2019-02-11T05:33:05.790Z,68.02
2019-02-11T05:34:14.289Z,67.96
2019-02-11T05:35:22.031Z,67.95
2019-02-11T05:36:29.756Z,67.86
2019-02-11T05:37:37.979Z,67.62
2019-02-11T05:38:46.095Z,67.53
2019-02-11T05:39:54.362Z,67.50
2019-02-11T05:41:02.871Z,67.33
2019-02-11T05:42:10.813Z,67.33
2019-02-11T05:43:18.845Z,67.23
2019-02-11T05:44:26.607Z,66.81
2019-02-11T05:45:34.512Z,66.79
2019-02-11T05:46:42.526Z,66.78
2019-02-11T05:47:50.226Z,66.51
2019-02-11T05:48:58.335Z,66.43
2019-02-11T05:50:10.451Z,66.45
2019-02-11T05:51:18.264Z,66.27
2019-02-11T05:52:25.860Z,66.28
2019-02-11T05:53:34.060Z,66.14
2019-02-11T05:54:42.045Z,65.94
2019-02-11T05:55:49.841Z,65.89
2019-02-11T05:56:57.649Z,65.79
2019-02-11T05:58:05.869Z,65.70
2019-02-11T05:59:13.779Z,65.39
2019-02-11T06:00:21.883Z,65.29
2019-02-11T06:01:30.050Z,65.26
2019-02-11T06:02:38.130Z,65.07
2019-02-11T06:03:46.067Z,65.00
2019-02-11T06:04:53.928Z,64.82
2019-02-11T06:06:01.704Z,64.56
2019-02-11T06:07:10.053Z,64.59
2019-02-11T06:08:18.367Z,64.53
2019-02-11T06:09:26.063Z,64.47
2019-02-11T06:10:33.957Z,64.33
2019-02-11T06:11:41.990Z,64.16
2019-02-11T06:12:50.381Z,64.16
2019-02-11T06:13:58.078Z,63.97
2019-02-11T06:15:08.510Z,63.62
2019-02-11T06:16:16.769Z,63.62
2019-02-11T06:17:24.811Z,63.59
2019-02-11T06:18:32.712Z,63.58
2019-02-11T06:19:40.519Z,63.34
2019-02-11T06:20:48.747Z,63.25
2019-02-11T06:21:56.848Z,63.31
2019-02-11T06:23:05.218Z,63.07
2019-02-11T06:24:12.976Z,63.11
2019-02-11T06:25:20.828Z,63.14
2019-02-11T06:26:29.062Z,63.12
2019-02-11T06:27:36.999Z,62.83
2019-02-11T06:28:45.595Z,62.68
2019-02-11T06:29:53.454Z,62.58
2019-02-11T06:31:01.324Z,62.32
2019-02-11T06:32:09.563Z,62.11
2019-02-11T06:33:19.808Z,62.00
2019-02-11T06:34:27.799Z,61.90
2019-02-11T06:35:36.076Z,61.77
2019-02-11T06:36:44.391Z,61.67
2019-02-11T06:37:52.294Z,61.79
2019-02-11T06:39:00.813Z,61.82
2019-02-11T06:40:11.385Z,61.58
2019-02-11T06:41:19.522Z,61.40
2019-02-11T06:42:28.313Z,61.41
2019-02-11T06:43:36.429Z,61.47
2019-02-11T06:44:44.551Z,61.40
2019-02-11T06:45:53.023Z,61.34
2019-02-11T06:47:01.523Z,61.31
2019-02-11T06:48:09.955Z,61.34
2019-02-11T06:49:18.223Z,61.25
2019-02-11T06:50:25.959Z,61.25
2019-02-11T06:51:34.836Z,61.23
2019-02-11T06:52:43.074Z,61.22
2019-02-11T06:53:51.343Z,61.14
2019-02-11T06:54:59.382Z,61.09
2019-02-11T06:56:07.734Z,61.03
2019-02-11T06:57:16.142Z,61.03
2019-02-11T06:58:24.450Z,61.17
2019-02-11T06:59:32.824Z,61.17
2019-02-11T07:00:40.685Z,61.13
2019-02-11T07:01:49.029Z,61.11
2019-02-11T07:02:57.849Z,61.03
2019-02-11T07:04:06.093Z,61.08
2019-02-11T07:05:14.661Z,60.96
2019-02-11T07:06:22.598Z,60.91
2019-02-11T07:07:31.459Z,60.95
2019-02-11T07:08:39.623Z,60.92
2019-02-11T07:09:48.316Z,60.65
2019-02-11T07:10:56.839Z,60.71
2019-02-11T07:12:04.879Z,60.64
2019-02-11T07:13:13.321Z,60.59
2019-02-11T07:14:22.248Z,60.52
2019-02-11T07:15:30.324Z,60.60
2019-02-11T07:16:38.545Z,60.44
2019-02-11T07:17:47.051Z,60.43
2019-02-11T07:18:55.173Z,60.23
2019-02-11T07:20:04.003Z,60.35
2019-02-11T07:21:12.243Z,60.24
2019-02-11T07:22:20.553Z,60.20
2019-02-11T07:23:29.010Z,60.19
2019-02-11T07:24:36.995Z,60.13
2019-02-11T07:25:45.411Z,60.05
2019-02-11T07:26:53.547Z,59.98
2019-02-11T07:28:02.373Z,59.87
2019-02-11T07:29:10.619Z,59.88
2019-02-11T07:30:19.265Z,59.93
2019-02-11T07:31:27.346Z,59.91
2019-02-11T07:32:35.882Z,59.76
2019-02-11T07:33:44.025Z,59.77
2019-02-11T07:34:52.662Z,59.69
2019-02-11T07:36:00.683Z,59.67
2019-02-11T07:37:08.985Z,59.83
2019-02-11T07:38:17.610Z,59.84
2019-02-11T07:39:25.413Z,59.64
2019-02-11T07:40:33.540Z,59.71
2019-02-11T07:41:43.108Z,59.78
2019-02-11T07:42:56.180Z,59.74
2019-02-11T07:44:06.036Z,59.63
2019-02-11T07:45:18.731Z,59.59
2019-02-11T07:46:28.666Z,59.58
2019-02-11T07:47:36.916Z,59.65
2019-02-11T07:48:45.079Z,59.42
2019-02-11T07:49:53.106Z,59.45
2019-02-11T07:51:01.862Z,59.32
2019-02-11T07:52:09.857Z,59.39
2019-02-11T07:53:18.162Z,59.34
2019-02-11T07:54:26.742Z,59.22
2019-02-11T07:55:35.197Z,59.20
2019-02-11T07:56:43.995Z,59.14
2019-02-11T07:57:52.556Z,59.04
2019-02-11T07:59:00.652Z,58.92
2019-02-11T08:00:10.862Z,58.96
2019-02-11T08:01:21.032Z,58.89
2019-02-11T08:02:29.101Z,58.82
2019-02-11T08:03:37.966Z,58.65
2019-02-11T08:04:46.146Z,58.57
2019-02-11T08:05:54.382Z,58.40
2019-02-11T08:07:03.053Z,57.94
2019-02-11T08:08:11.163Z,57.92
2019-02-11T08:09:19.654Z,57.92
2019-02-11T08:10:27.945Z,57.97
2019-02-11T08:11:36.109Z,57.88
2019-02-11T08:12:44.260Z,57.93
2019-02-11T08:13:52.167Z,57.86
2019-02-11T08:15:00.205Z,57.95
2019-02-11T08:16:08.244Z,57.77
2019-02-11T08:17:16.490Z,57.66
2019-02-11T08:18:24.496Z,57.34
2019-02-11T08:19:32.604Z,57.38
2019-02-11T08:20:40.744Z,57.40
2019-02-11T08:21:48.483Z,57.41
2019-02-11T08:22:56.375Z,57.27
2019-02-11T08:24:04.698Z,57.22
2019-02-11T08:25:14.087Z,57.13
2019-02-11T08:26:22.083Z,56.82
2019-02-11T08:27:30.297Z,56.85
2019-02-11T08:28:38.819Z,56.61
2019-02-11T08:29:46.682Z,56.44
2019-02-11T08:30:55.187Z,56.40
2019-02-11T08:32:02.872Z,56.46
2019-02-11T08:33:10.680Z,56.52
2019-02-11T08:34:18.858Z,56.37
2019-02-11T08:35:28.934Z,56.16
2019-02-11T08:36:37.093Z,56.19
2019-02-11T08:37:45.510Z,56.31
2019-02-11T08:38:53.504Z,56.16
2019-02-11T08:40:01.976Z,56.06
2019-02-11T08:41:09.774Z,55.98
2019-02-11T08:42:17.744Z,55.89
2019-02-11T08:43:26.290Z,55.66
2019-02-11T08:44:34.263Z,55.67
2019-02-11T08:45:47.007Z,55.57
2019-02-11T08:46:51.565Z,55.44
2019-02-11T08:47:59.922Z,55.08
2019-02-11T08:49:07.932Z,55.00
2019-02-11T08:50:16.746Z,54.95
2019-02-11T08:51:26.179Z,54.89
2019-02-11T08:52:34.276Z,54.83
2019-02-11T08:53:42.599Z,54.68
2019-02-11T08:54:50.713Z,54.78
2019-02-11T08:55:58.761Z,54.75
2019-02-11T08:57:07.353Z,54.70
2019-02-11T08:58:15.368Z,54.39
2019-02-11T08:59:23.770Z,54.14
2019-02-11T09:00:32.478Z,53.76
2019-02-11T09:01:40.457Z,53.78
2019-02-11T09:02:49.064Z,53.20
2019-02-11T09:03:57.721Z,53.10
2019-02-11T09:05:07.665Z,52.89
2019-02-11T09:06:15.965Z,52.78
2019-02-11T09:07:23.905Z,52.54
2019-02-11T09:08:34.302Z,52.38
2019-02-11T09:09:42.775Z,52.01
2019-02-11T09:10:50.762Z,51.30
2019-02-11T09:11:58.456Z,50.87
2019-02-11T09:13:06.693Z,49.86
2019-02-11T09:14:14.846Z,49.69
2019-02-11T09:15:22.843Z,49.80
2019-02-11T09:16:30.845Z,49.83
2019-02-11T09:17:38.753Z,49.71
2019-02-11T09:18:46.927Z,48.77
2019-02-11T09:19:54.666Z,47.91
2019-02-11T09:21:03.013Z,47.38
2019-02-11T09:22:10.763Z,46.59
2019-02-11T09:23:18.703Z,45.87
2019-02-11T09:24:26.432Z,44.08
2019-02-11T09:25:34.788Z,42.37
2019-02-11T09:26:42.664Z,41.63
2019-02-11T09:27:50.273Z,39.61
2019-02-11T09:29:03.161Z,38.53
2019-02-11T09:30:15.447Z,38.10
2019-02-11T09:31:23.393Z,37.82
2019-02-11T09:32:30.992Z,37.97
2019-02-11T09:33:39.043Z,38.46
2019-02-11T09:34:47.050Z,39.56
2019-02-11T09:35:55.057Z,40.63
2019-02-11T09:37:02.870Z,41.20
2019-02-11T09:38:11.009Z,41.54
2019-02-11T09:39:19.178Z,41.90
2019-02-11T09:40:27.252Z,42.21
2019-02-11T09:41:35.682Z,41.93
2019-02-11T09:42:43.574Z,42.32
2019-02-11T09:43:51.755Z,42.50
2019-02-11T09:44:59.727Z,43.31
2019-02-11T09:46:07.923Z,43.88
2019-02-11T09:47:15.932Z,44.22
2019-02-11T09:48:24.209Z,44.13
2019-02-11T09:49:32.308Z,44.13
2019-02-11T09:50:46.881Z,44.21
2019-02-11T09:51:54.674Z,44.21
2019-02-11T09:53:03.068Z,44.56
2019-02-11T09:54:10.859Z,45.27
2019-02-11T09:55:23.102Z,45.82
2019-02-11T09:56:30.822Z,47.06
2019-02-11T09:57:38.642Z,47.95
2019-02-11T09:58:46.468Z,48.79
2019-02-11T09:59:54.244Z,49.54
2019-02-11T10:01:02.106Z,50.08
2019-02-11T10:02:10.300Z,50.57
2019-02-11T10:03:18.244Z,50.77
2019-02-11T10:04:26.575Z,51.11
2019-02-11T10:05:34.641Z,51.47
2019-02-11T10:06:42.899Z,51.80
2019-02-11T10:07:50.893Z,52.13
2019-02-11T10:08:58.682Z,52.31
2019-02-11T10:10:09.390Z,52.64
2019-02-11T10:11:17.181Z,52.51
2019-02-11T10:12:25.210Z,52.49
2019-02-11T10:13:33.273Z,52.48
2019-02-11T10:14:40.882Z,52.67
2019-02-11T10:15:48.804Z,52.72
2019-02-11T10:16:56.671Z,52.63
2019-02-11T10:18:04.397Z,52.79
2019-02-11T10:19:14.119Z,52.93
2019-02-11T10:20:21.822Z,53.08
2019-02-11T10:21:30.152Z,53.16
2019-02-11T10:22:37.970Z,53.25
2019-02-11T10:23:46.344Z,53.41
2019-02-11T10:24:54.267Z,53.36
2019-02-11T10:26:02.331Z,53.58
2019-02-11T10:27:10.152Z,53.76
2019-02-11T10:28:17.835Z,53.99
2019-02-11T10:29:25.780Z,54.13
2019-02-11T10:30:34.155Z,54.30
2019-02-11T10:31:41.823Z,54.52
2019-02-11T10:32:49.880Z,54.52
2019-02-11T10:33:57.882Z,54.59
2019-02-11T10:35:07.669Z,54.91
2019-02-11T10:36:15.756Z,54.88
2019-02-11T10:37:23.718Z,55.09
2019-02-11T10:38:36.551Z,55.12
2019-02-11T10:39:41.329Z,55.30
2019-02-11T10:40:49.452Z,55.32
2019-02-11T10:41:57.423Z,55.52
2019-02-11T10:43:05.245Z,55.38
2019-02-11T10:44:12.831Z,55.44
2019-02-11T10:45:20.603Z,55.33
2019-02-11T10:46:28.645Z,55.37
2019-02-11T10:47:36.477Z,55.32
2019-02-11T10:48:44.317Z,55.29
2019-02-11T10:49:52.669Z,55.38
2019-02-11T10:51:00.499Z,55.51
2019-02-11T10:52:08.302Z,55.51
2019-02-11T10:53:15.887Z,55.46
2019-02-11T10:54:23.655Z,55.54
2019-02-11T10:55:31.411Z,55.21
2019-02-11T10:56:39.135Z,55.13
2019-02-11T10:57:47.132Z,54.90
2019-02-11T10:58:55.094Z,54.52
2019-02-11T11:00:02.809Z,54.06
2019-02-11T11:01:15.168Z,53.73
2019-02-11T11:02:22.895Z,53.62
2019-02-11T11:03:31.155Z,52.89
2019-02-11T11:04:39.155Z,52.83
2019-02-11T11:05:47.090Z,52.55
2019-02-11T11:06:55.088Z,52.00
2019-02-11T11:08:03.340Z,50.89
2019-02-11T11:09:13.794Z,47.99
2019-02-11T11:10:30.956Z,45.96
2019-02-11T11:11:38.900Z,44.01
2019-02-11T11:12:46.826Z,42.97
2019-02-11T11:13:55.235Z,42.62
2019-02-11T11:15:03.989Z,43.01
2019-02-11T11:16:12.079Z,44.12
2019-02-11T11:17:20.155Z,45.10
2019-02-11T11:18:28.321Z,45.75
2019-02-11T11:19:36.456Z,46.79
2019-02-11T11:20:44.596Z,47.92
2019-02-11T11:21:52.400Z,49.08
2019-02-11T11:23:00.310Z,49.82
2019-02-11T11:24:08.161Z,50.55
2019-02-11T11:25:18.113Z,51.15
2019-02-11T11:26:25.861Z,51.39
2019-02-11T11:27:33.742Z,51.53
2019-02-11T11:28:41.675Z,51.58
2019-02-11T11:29:49.154Z,51.98
2019-02-11T11:30:56.881Z,52.39
2019-02-11T11:32:04.884Z,52.75
2019-02-11T11:33:12.669Z,52.98
2019-02-11T11:34:20.183Z,53.24
2019-02-11T11:35:28.259Z,53.73
2019-02-11T11:36:36.225Z,54.35
2019-02-11T11:37:44.215Z,54.55
2019-02-11T11:38:51.825Z,54.98
2019-02-11T11:39:59.471Z,55.27
2019-02-11T11:41:07.889Z,55.25
2019-02-11T11:42:15.888Z,55.40
2019-02-11T11:43:23.894Z,55.19
2019-02-11T11:44:31.584Z,54.96
2019-02-11T11:45:39.304Z,55.12
2019-02-11T11:46:47.427Z,55.16
2019-02-11T11:47:55.307Z,55.16
2019-02-11T11:49:03.414Z,55.24
2019-02-11T11:50:12.395Z,55.21
2019-02-11T11:51:20.081Z,55.29
2019-02-11T11:52:27.942Z,55.21
2019-02-11T11:53:35.790Z,55.18
2019-02-11T11:54:45.397Z,55.32
2019-02-11T11:55:53.210Z,55.45
2019-02-11T11:57:01.195Z,55.56
2019-02-11T11:58:09.531Z,55.61
2019-02-11T11:59:17.353Z,55.53
2019-02-11T12:00:28.663Z,55.65
2019-02-11T12:01:36.539Z,55.64
2019-02-11T12:03:00.538Z,55.61
2019-02-11T12:03:54.642Z,55.80
2019-02-11T12:05:02.690Z,56.01
2019-02-11T12:06:10.686Z,56.08
2019-02-11T12:07:18.775Z,56.68
2019-02-11T12:08:26.765Z,57.30
2019-02-11T12:09:35.571Z,57.67
2019-02-11T12:10:43.365Z,57.99
2019-02-11T12:11:51.109Z,58.53
2019-02-11T12:12:59.270Z,58.90
2019-02-11T12:14:07.357Z,59.35
2019-02-11T12:15:19.030Z,59.48
2019-02-11T12:16:26.713Z,59.75
2019-02-11T12:17:34.523Z,59.82
2019-02-11T12:18:42.599Z,59.99
2019-02-11T12:19:50.250Z,60.24
2019-02-11T12:20:58.247Z,60.44
2019-02-11T12:22:06.401Z,60.74
2019-02-11T12:23:14.411Z,60.78
2019-02-11T12:24:22.489Z,61.00
2019-02-11T12:25:30.704Z,61.06
2019-02-11T12:26:38.733Z,60.92
2019-02-11T12:27:47.390Z,61.07
2019-02-11T12:28:55.094Z,61.34
2019-02-11T12:30:02.879Z,61.58
2019-02-11T12:31:10.751Z,62.04
2019-02-11T12:32:18.647Z,62.05
2019-02-11T12:33:26.231Z,62.17
2019-02-11T12:34:34.476Z,62.32
2019-02-11T12:35:42.750Z,62.51
2019-02-11T12:36:53.285Z,62.80
2019-02-11T12:38:01.393Z,62.86
2019-02-11T12:39:09.367Z,62.92
2019-02-11T12:40:17.213Z,63.23
2019-02-11T12:41:25.097Z,63.53
2019-02-11T12:42:33.150Z,63.77
2019-02-11T12:43:41.055Z,64.00
2019-02-11T12:44:49.087Z,64.20
2019-02-11T12:45:57.402Z,64.33
2019-02-11T12:47:13.913Z,64.47
2019-02-11T12:48:15.121Z,64.81
2019-02-11T12:49:23.160Z,64.80
2019-02-11T12:50:31.246Z,64.94
2019-02-11T12:51:38.973Z,64.92
2019-02-11T12:52:47.231Z,65.14
2019-02-11T12:53:55.245Z,65.53
2019-02-11T12:55:07.531Z,65.61
2019-02-11T12:56:12.424Z,65.64
2019-02-11T12:57:20.439Z,65.73
2019-02-11T12:58:28.428Z,65.98
2019-02-11T12:59:36.189Z,66.04
2019-02-11T13:00:44.524Z,66.37
2019-02-11T13:01:52.486Z,66.42
2019-02-11T13:03:00.179Z,66.87
2019-02-11T13:04:08.202Z,66.85
2019-02-11T13:05:16.407Z,67.08
2019-02-11T13:06:24.459Z,67.21
2019-02-11T13:07:32.214Z,67.55
2019-02-11T13:08:40.092Z,67.60
2019-02-11T13:09:48.298Z,67.98
2019-02-11T13:10:55.919Z,68.13
2019-02-11T13:12:04.201Z,67.92
2019-02-11T13:13:11.694Z,67.80
2019-02-11T13:14:19.435Z,67.64
2019-02-11T13:15:53.906Z,67.51
2019-02-11T13:16:37.890Z,67.25
2019-02-11T13:17:51.846Z,67.28
2019-02-11T13:18:59.706Z,67.37
2019-02-11T13:20:12.077Z,67.24
2019-02-11T13:21:19.952Z,67.20
2019-02-11T13:22:27.900Z,67.26
2019-02-11T13:23:36.156Z,67.30
2019-02-11T13:24:45.738Z,67.33
2019-02-11T13:25:53.814Z,67.18
2019-02-11T13:27:01.554Z,67.25
2019-02-11T13:28:09.212Z,67.25
2019-02-11T13:29:17.103Z,67.34
2019-02-11T13:30:26.643Z,67.46
2019-02-11T13:31:34.530Z,67.40
2019-02-11T13:32:42.663Z,67.56
2019-02-11T13:33:51.104Z,67.82
2019-02-11T13:34:59.131Z,67.98
2019-02-11T13:36:07.094Z,68.16
2019-02-11T13:37:15.089Z,68.54
2019-02-11T13:38:22.800Z,68.81
2019-02-11T13:39:30.772Z,69.08
2019-02-11T13:40:38.728Z,69.32
2019-02-11T13:41:46.448Z,69.67
2019-02-11T13:42:55.094Z,69.82
2019-02-11T13:44:03.011Z,70.10
2019-02-11T13:45:21.283Z,70.55
2019-02-11T13:46:29.113Z,70.60
2019-02-11T13:47:52.341Z,70.75
2019-02-11T13:48:49.701Z,70.90
2019-02-11T13:49:57.810Z,70.89
2019-02-11T13:51:05.956Z,70.77
2019-02-11T13:52:15.153Z,70.79
2019-02-11T13:53:22.942Z,70.71
2019-02-11T13:54:32.562Z,70.58
